sensor_id;sensor_type;location;lat;lon;timestamp;temperature;humidity
12981;DHT22;6555;50.468;8.480;2022-07-29T00:04:20;23.40;33.30
12981;DHT22;6555;50.468;8.480;2022-07-29T00:09:23;23.40;33.90
12981;DHT22;6555;50.468;8.480;2022-07-29T00:14:28;23.30;33.30
12981;DHT22;6555;50.468;8.480;2022-07-29T00:19:31;23.20;33.50
12981;DHT22;6555;50.468;8.480;2022-07-29T00:24:35;23.00;33.50
12981;DHT22;6555;50.468;8.480;2022-07-29T00:29:40;23.00;33.60
12981;DHT22;6555;50.468;8.480;2022-07-29T00:34:43;22.90;33.90
12981;DHT22;6555;50.468;8.480;2022-07-29T00:40:04;22.90;33.90
12981;DHT22;6555;50.468;8.480;2022-07-29T00:45:09;22.90;34.00
12981;DHT22;6555;50.468;8.480;2022-07-29T00:50:13;22.90;34.40
12981;DHT22;6555;50.468;8.480;2022-07-29T00:55:17;22.80;34.30
12981;DHT22;6555;50.468;8.480;2022-07-29T01:00:22;22.80;34.60
12981;DHT22;6555;50.468;8.480;2022-07-29T01:05:27;22.70;35.30
12981;DHT22;6555;50.468;8.480;2022-07-29T01:10:51;22.50;35.10
12981;DHT22;6555;50.468;8.480;2022-07-29T01:16:00;22.40;35.50
12981;DHT22;6555;50.468;8.480;2022-07-29T01:21:31;22.30;36.60
12981;DHT22;6555;50.468;8.480;2022-07-29T01:26:45;22.20;37.50
12981;DHT22;6555;50.468;8.480;2022-07-29T01:31:57;22.20;37.20
12981;DHT22;6555;50.468;8.480;2022-07-29T01:37:06;22.20;38.20
12981;DHT22;6555;50.468;8.480;2022-07-29T01:42:15;22.00;37.60
12981;DHT22;6555;50.468;8.480;2022-07-29T01:47:25;21.90;38.10
12981;DHT22;6555;50.468;8.480;2022-07-29T01:52:34;21.80;38.40
12981;DHT22;6555;50.468;8.480;2022-07-29T01:57:38;21.70;38.70
12981;DHT22;6555;50.468;8.480;2022-07-29T02:02:45;21.70;38.50
12981;DHT22;6555;50.468;8.480;2022-07-29T02:07:50;21.60;38.90
12981;DHT22;6555;50.468;8.480;2022-07-29T02:12:57;21.50;38.70
12981;DHT22;6555;50.468;8.480;2022-07-29T02:18:06;21.50;39.00
12981;DHT22;6555;50.468;8.480;2022-07-29T02:23:11;21.40;39.70
12981;DHT22;6555;50.468;8.480;2022-07-29T02:28:16;21.30;39.30
12981;DHT22;6555;50.468;8.480;2022-07-29T02:33:23;21.30;39.30
12981;DHT22;6555;50.468;8.480;2022-07-29T02:38:27;21.20;39.50
12981;DHT22;6555;50.468;8.480;2022-07-29T02:43:47;21.20;39.30
12981;DHT22;6555;50.468;8.480;2022-07-29T02:48:59;21.10;39.50
12981;DHT22;6555;50.468;8.480;2022-07-29T02:54:07;21.00;40.40
12981;DHT22;6555;50.468;8.480;2022-07-29T02:59:11;20.90;39.90
12981;DHT22;6555;50.468;8.480;2022-07-29T03:04:19;20.90;40.50
12981;DHT22;6555;50.468;8.480;2022-07-29T03:09:23;20.80;40.50
12981;DHT22;6555;50.468;8.480;2022-07-29T03:14:27;20.70;40.30
12981;DHT22;6555;50.468;8.480;2022-07-29T03:19:31;20.70;40.40
12981;DHT22;6555;50.468;8.480;2022-07-29T03:24:36;20.70;41.00
12981;DHT22;6555;50.468;8.480;2022-07-29T03:29:39;20.60;40.70
12981;DHT22;6555;50.468;8.480;2022-07-29T03:34:52;20.60;40.70
12981;DHT22;6555;50.468;8.480;2022-07-29T03:39:57;20.60;41.10
12981;DHT22;6555;50.468;8.480;2022-07-29T03:45:02;20.60;41.10
12981;DHT22;6555;50.468;8.480;2022-07-29T03:50:10;20.60;41.40
12981;DHT22;6555;50.468;8.480;2022-07-29T03:55:13;20.60;41.70
12981;DHT22;6555;50.468;8.480;2022-07-29T04:00:17;20.50;41.40
12981;DHT22;6555;50.468;8.480;2022-07-29T04:05:22;20.50;41.40
12981;DHT22;6555;50.468;8.480;2022-07-29T04:10:25;20.40;41.70
12981;DHT22;6555;50.468;8.480;2022-07-29T04:15:34;20.40;41.60
12981;DHT22;6555;50.468;8.480;2022-07-29T04:20:38;20.30;41.70
12981;DHT22;6555;50.468;8.480;2022-07-29T04:25:42;20.30;41.90
12981;DHT22;6555;50.468;8.480;2022-07-29T04:30:45;20.30;42.00
12981;DHT22;6555;50.468;8.480;2022-07-29T04:35:49;20.20;41.80
12981;DHT22;6555;50.468;8.480;2022-07-29T04:40:55;20.10;42.10
12981;DHT22;6555;50.468;8.480;2022-07-29T04:45:58;20.10;41.90
12981;DHT22;6555;50.468;8.480;2022-07-29T04:51:03;20.00;42.00
12981;DHT22;6555;50.468;8.480;2022-07-29T04:56:06;19.90;42.50
12981;DHT22;6555;50.468;8.480;2022-07-29T05:01:09;19.90;42.30
12981;DHT22;6555;50.468;8.480;2022-07-29T05:06:13;19.90;42.30
12981;DHT22;6555;50.468;8.480;2022-07-29T05:11:16;19.80;42.70
12981;DHT22;6555;50.468;8.480;2022-07-29T05:16:23;19.80;42.60
12981;DHT22;6555;50.468;8.480;2022-07-29T05:21:27;19.70;42.70
12981;DHT22;6555;50.468;8.480;2022-07-29T05:26:30;19.70;43.00
12981;DHT22;6555;50.468;8.480;2022-07-29T05:31:33;19.70;42.80
12981;DHT22;6555;50.468;8.480;2022-07-29T05:36:37;19.70;42.80
12981;DHT22;6555;50.468;8.480;2022-07-29T05:41:40;19.60;43.10
12981;DHT22;6555;50.468;8.480;2022-07-29T05:46:43;19.60;43.10
12981;DHT22;6555;50.468;8.480;2022-07-29T05:51:48;19.50;43.30
12981;DHT22;6555;50.468;8.480;2022-07-29T05:56:53;19.50;43.80
12981;DHT22;6555;50.468;8.480;2022-07-29T06:01:57;19.60;43.80
12981;DHT22;6555;50.468;8.480;2022-07-29T06:07:01;19.60;44.00
12981;DHT22;6555;50.468;8.480;2022-07-29T06:12:05;19.80;44.50
12981;DHT22;6555;50.468;8.480;2022-07-29T06:17:08;19.90;44.60
12981;DHT22;6555;50.468;8.480;2022-07-29T06:22:16;20.00;44.70
12981;DHT22;6555;50.468;8.480;2022-07-29T06:27:19;20.20;45.20
12981;DHT22;6555;50.468;8.480;2022-07-29T06:32:22;20.40;44.60
12981;DHT22;6555;50.468;8.480;2022-07-29T06:37:29;20.50;44.60
12981;DHT22;6555;50.468;8.480;2022-07-29T06:42:34;20.80;44.80
12981;DHT22;6555;50.468;8.480;2022-07-29T06:47:37;21.00;44.60
12981;DHT22;6555;50.468;8.480;2022-07-29T06:52:42;21.20;44.90
12981;DHT22;6555;50.468;8.480;2022-07-29T06:57:45;21.50;44.80
12981;DHT22;6555;50.468;8.480;2022-07-29T07:02:52;21.70;44.60
12981;DHT22;6555;50.468;8.480;2022-07-29T07:07:56;21.90;44.70
12981;DHT22;6555;50.468;8.480;2022-07-29T07:12:59;22.20;44.70
12981;DHT22;6555;50.468;8.480;2022-07-29T07:18:03;22.40;44.50
12981;DHT22;6555;50.468;8.480;2022-07-29T07:23:07;22.60;44.40
12981;DHT22;6555;50.468;8.480;2022-07-29T07:28:10;22.80;44.40
12981;DHT22;6555;50.468;8.480;2022-07-29T07:33:13;23.00;44.40
12981;DHT22;6555;50.468;8.480;2022-07-29T07:38:18;23.20;44.40
12981;DHT22;6555;50.468;8.480;2022-07-29T07:43:21;23.30;44.50
12981;DHT22;6555;50.468;8.480;2022-07-29T07:48:24;23.60;44.30
12981;DHT22;6555;50.468;8.480;2022-07-29T07:53:29;23.80;44.30
12981;DHT22;6555;50.468;8.480;2022-07-29T07:58:33;24.00;44.40
12981;DHT22;6555;50.468;8.480;2022-07-29T08:03:37;24.20;44.20
12981;DHT22;6555;50.468;8.480;2022-07-29T08:08:42;24.40;44.30
12981;DHT22;6555;50.468;8.480;2022-07-29T08:13:46;24.60;43.90
12981;DHT22;6555;50.468;8.480;2022-07-29T08:18:49;24.80;43.60
12981;DHT22;6555;50.468;8.480;2022-07-29T08:23:54;24.90;43.50
12981;DHT22;6555;50.468;8.480;2022-07-29T08:29:17;24.90;43.50
12981;DHT22;6555;50.468;8.480;2022-07-29T08:34:20;25.00;43.30
12981;DHT22;6555;50.468;8.480;2022-07-29T08:39:30;25.10;43.50
12981;DHT22;6555;50.468;8.480;2022-07-29T08:44:33;25.30;43.50
12981;DHT22;6555;50.468;8.480;2022-07-29T08:49:37;25.30;43.10
12981;DHT22;6555;50.468;8.480;2022-07-29T08:54:43;25.50;43.00
12981;DHT22;6555;50.468;8.480;2022-07-29T08:59:48;25.50;43.10
12981;DHT22;6555;50.468;8.480;2022-07-29T09:04:54;25.60;42.80
12981;DHT22;6555;50.468;8.480;2022-07-29T09:09:59;25.70;42.80
12981;DHT22;6555;50.468;8.480;2022-07-29T09:15:02;25.80;42.70
12981;DHT22;6555;50.468;8.480;2022-07-29T09:20:09;26.00;43.00
12981;DHT22;6555;50.468;8.480;2022-07-29T09:25:13;26.10;42.90
12981;DHT22;6555;50.468;8.480;2022-07-29T09:30:16;26.30;42.90
12981;DHT22;6555;50.468;8.480;2022-07-29T09:35:32;26.40;42.90
12981;DHT22;6555;50.468;8.480;2022-07-29T09:40:36;26.70;42.90
12981;DHT22;6555;50.468;8.480;2022-07-29T09:45:39;27.00;43.10
12981;DHT22;6555;50.468;8.480;2022-07-29T09:50:44;27.30;42.80
12981;DHT22;6555;50.468;8.480;2022-07-29T09:55:50;27.60;42.30
12981;DHT22;6555;50.468;8.480;2022-07-29T10:00:54;27.80;42.00
12981;DHT22;6555;50.468;8.480;2022-07-29T10:06:05;28.10;42.40
12981;DHT22;6555;50.468;8.480;2022-07-29T10:11:11;28.40;41.90
12981;DHT22;6555;50.468;8.480;2022-07-29T10:16:16;28.60;41.70
12981;DHT22;6555;50.468;8.480;2022-07-29T10:21:20;28.80;41.40
12981;DHT22;6555;50.468;8.480;2022-07-29T10:26:38;29.10;41.60
12981;DHT22;6555;50.468;8.480;2022-07-29T10:31:48;29.30;41.10
12981;DHT22;6555;50.468;8.480;2022-07-29T10:36:56;29.40;40.70
12981;DHT22;6555;50.468;8.480;2022-07-29T10:42:13;29.60;40.70
12981;DHT22;6555;50.468;8.480;2022-07-29T10:47:22;29.80;40.10
12981;DHT22;6555;50.468;8.480;2022-07-29T10:58:16;30.20;40.30
12981;DHT22;6555;50.468;8.480;2022-07-29T11:03:42;30.50;40.30
12981;DHT22;6555;50.468;8.480;2022-07-29T11:09:17;30.70;39.70
12981;DHT22;6555;50.468;8.480;2022-07-29T11:14:56;30.90;39.40
12981;DHT22;6555;50.468;8.480;2022-07-29T11:20:31;31.10;39.90
12981;DHT22;6555;50.468;8.480;2022-07-29T11:25:34;31.30;39.30
12981;DHT22;6555;50.468;8.480;2022-07-29T11:30:54;31.50;39.60
12981;DHT22;6555;50.468;8.480;2022-07-29T11:36:15;31.70;39.10
12981;DHT22;6555;50.468;8.480;2022-07-29T11:41:25;31.80;38.40
12981;DHT22;6555;50.468;8.480;2022-07-29T11:46:47;31.80;38.40
12981;DHT22;6555;50.468;8.480;2022-07-29T11:51:51;32.00;38.40
12981;DHT22;6555;50.468;8.480;2022-07-29T11:56:54;32.00;38.70
12981;DHT22;6555;50.468;8.480;2022-07-29T12:02:00;32.10;38.60
12981;DHT22;6555;50.468;8.480;2022-07-29T12:07:26;32.10;38.60
12981;DHT22;6555;50.468;8.480;2022-07-29T12:12:36;32.30;38.20
12981;DHT22;6555;50.468;8.480;2022-07-29T12:17:41;32.40;38.30
12981;DHT22;6555;50.468;8.480;2022-07-29T12:22:45;32.50;37.80
12981;DHT22;6555;50.468;8.480;2022-07-29T12:28:00;32.60;38.00
12981;DHT22;6555;50.468;8.480;2022-07-29T12:33:14;32.80;37.30
12981;DHT22;6555;50.468;8.480;2022-07-29T12:38:18;33.00;37.70
12981;DHT22;6555;50.468;8.480;2022-07-29T12:43:22;33.20;37.80
12981;DHT22;6555;50.468;8.480;2022-07-29T12:48:36;33.40;37.40
12981;DHT22;6555;50.468;8.480;2022-07-29T12:53:40;33.50;36.80
12981;DHT22;6555;50.468;8.480;2022-07-29T12:58:44;33.60;37.00
12981;DHT22;6555;50.468;8.480;2022-07-29T13:03:54;33.80;36.80
12981;DHT22;6555;50.468;8.480;2022-07-29T13:09:03;34.00;36.80
12981;DHT22;6555;50.468;8.480;2022-07-29T13:14:07;34.10;36.50
12981;DHT22;6555;50.468;8.480;2022-07-29T13:19:12;34.10;36.10
12981;DHT22;6555;50.468;8.480;2022-07-29T13:24:15;34.10;35.90
12981;DHT22;6555;50.468;8.480;2022-07-29T13:29:20;34.00;35.90
12981;DHT22;6555;50.468;8.480;2022-07-29T13:34:25;33.90;35.30
12981;DHT22;6555;50.468;8.480;2022-07-29T13:39:28;33.70;35.10
12981;DHT22;6555;50.468;8.480;2022-07-29T13:44:31;33.60;35.30
12981;DHT22;6555;50.468;8.480;2022-07-29T13:49:36;33.40;35.30
12981;DHT22;6555;50.468;8.480;2022-07-29T13:54:39;33.20;35.40
12981;DHT22;6555;50.468;8.480;2022-07-29T13:59:43;33.00;35.50
12981;DHT22;6555;50.468;8.480;2022-07-29T14:04:54;32.80;35.10
12981;DHT22;6555;50.468;8.480;2022-07-29T14:09:57;32.50;35.10
12981;DHT22;6555;50.468;8.480;2022-07-29T14:15:00;32.30;35.30
12981;DHT22;6555;50.468;8.480;2022-07-29T14:20:05;32.20;35.40
12981;DHT22;6555;50.468;8.480;2022-07-29T14:25:08;32.00;35.60
12981;DHT22;6555;50.468;8.480;2022-07-29T14:30:15;31.80;35.30
12981;DHT22;6555;50.468;8.480;2022-07-29T14:35:19;31.60;35.50
12981;DHT22;6555;50.468;8.480;2022-07-29T14:40:22;31.40;35.60
12981;DHT22;6555;50.468;8.480;2022-07-29T14:45:25;31.20;35.90
12981;DHT22;6555;50.468;8.480;2022-07-29T14:50:31;31.10;36.20
12981;DHT22;6555;50.468;8.480;2022-07-29T14:55:34;30.90;35.50
12981;DHT22;6555;50.468;8.480;2022-07-29T15:00:37;30.70;35.80
12981;DHT22;6555;50.468;8.480;2022-07-29T15:05:41;30.40;36.10
12981;DHT22;6555;50.468;8.480;2022-07-29T15:10:44;30.00;36.70
12981;DHT22;6555;50.468;8.480;2022-07-29T15:15:47;29.70;36.60
12981;DHT22;6555;50.468;8.480;2022-07-29T15:20:52;29.40;36.80
12981;DHT22;6555;50.468;8.480;2022-07-29T15:25:55;29.10;37.50
12981;DHT22;6555;50.468;8.480;2022-07-29T15:30:58;29.00;37.80
12981;DHT22;6555;50.468;8.480;2022-07-29T15:36:03;29.00;38.10
12981;DHT22;6555;50.468;8.480;2022-07-29T15:41:06;29.20;38.40
12981;DHT22;6555;50.468;8.480;2022-07-29T15:46:12;29.40;38.40
12981;DHT22;6555;50.468;8.480;2022-07-29T15:51:34;29.70;38.50
12981;DHT22;6555;50.468;8.480;2022-07-29T15:56:37;30.00;38.60
12981;DHT22;6555;50.468;8.480;2022-07-29T16:01:40;30.10;38.40
12981;DHT22;6555;50.468;8.480;2022-07-29T16:06:45;30.40;38.30
12981;DHT22;6555;50.468;8.480;2022-07-29T16:11:49;30.50;38.20
12981;DHT22;6555;50.468;8.480;2022-07-29T16:16:54;30.70;37.90
12981;DHT22;6555;50.468;8.480;2022-07-29T16:21:59;30.80;37.80
12981;DHT22;6555;50.468;8.480;2022-07-29T16:27:02;30.90;37.70
12981;DHT22;6555;50.468;8.480;2022-07-29T16:32:05;31.00;38.30
12981;DHT22;6555;50.468;8.480;2022-07-29T16:37:10;31.10;37.90
12981;DHT22;6555;50.468;8.480;2022-07-29T16:42:13;31.20;37.30
12981;DHT22;6555;50.468;8.480;2022-07-29T16:47:37;31.30;37.10
12981;DHT22;6555;50.468;8.480;2022-07-29T16:52:41;31.50;37.00
12981;DHT22;6555;50.468;8.480;2022-07-29T16:57:44;31.60;36.70
12981;DHT22;6555;50.468;8.480;2022-07-29T17:02:47;31.60;36.50
12981;DHT22;6555;50.468;8.480;2022-07-29T17:07:52;31.50;36.50
12981;DHT22;6555;50.468;8.480;2022-07-29T17:12:55;31.40;36.40
12981;DHT22;6555;50.468;8.480;2022-07-29T17:17:58;31.20;36.50
12981;DHT22;6555;50.468;8.480;2022-07-29T17:23:14;31.00;36.60
12981;DHT22;6555;50.468;8.480;2022-07-29T17:28:17;30.80;36.20
12981;DHT22;6555;50.468;8.480;2022-07-29T17:33:20;30.60;36.40
12981;DHT22;6555;50.468;8.480;2022-07-29T17:38:24;30.40;36.60
12981;DHT22;6555;50.468;8.480;2022-07-29T17:43:27;30.20;36.70
12981;DHT22;6555;50.468;8.480;2022-07-29T17:48:30;30.00;37.30
12981;DHT22;6555;50.468;8.480;2022-07-29T17:53:35;29.80;37.10
12981;DHT22;6555;50.468;8.480;2022-07-29T17:58:38;29.80;37.40
12981;DHT22;6555;50.468;8.480;2022-07-29T18:03:41;29.60;37.60
12981;DHT22;6555;50.468;8.480;2022-07-29T18:08:45;29.50;37.80
12981;DHT22;6555;50.468;8.480;2022-07-29T18:13:48;29.40;38.20
12981;DHT22;6555;50.468;8.480;2022-07-29T18:18:51;29.30;38.20
12981;DHT22;6555;50.468;8.480;2022-07-29T18:23:56;29.10;38.50
12981;DHT22;6555;50.468;8.480;2022-07-29T18:28:59;29.10;38.70
12981;DHT22;6555;50.468;8.480;2022-07-29T18:34:02;28.90;38.30
12981;DHT22;6555;50.468;8.480;2022-07-29T18:39:06;28.80;38.50
12981;DHT22;6555;50.468;8.480;2022-07-29T18:44:11;28.70;38.90
12981;DHT22;6555;50.468;8.480;2022-07-29T18:49:18;28.60;38.90
12981;DHT22;6555;50.468;8.480;2022-07-29T18:54:22;28.50;39.10
12981;DHT22;6555;50.468;8.480;2022-07-29T18:59:26;28.30;39.30
12981;DHT22;6555;50.468;8.480;2022-07-29T19:04:31;28.20;39.00
12981;DHT22;6555;50.468;8.480;2022-07-29T19:09:35;28.10;39.00
12981;DHT22;6555;50.468;8.480;2022-07-29T19:14:50;27.80;38.90
12981;DHT22;6555;50.468;8.480;2022-07-29T19:19:53;27.70;38.90
12981;DHT22;6555;50.468;8.480;2022-07-29T19:24:57;27.60;39.00
12981;DHT22;6555;50.468;8.480;2022-07-29T19:30:00;27.50;39.20
12981;DHT22;6555;50.468;8.480;2022-07-29T19:35:04;27.30;39.20
12981;DHT22;6555;50.468;8.480;2022-07-29T19:40:27;27.20;39.30
12981;DHT22;6555;50.468;8.480;2022-07-29T19:45:31;27.00;39.70
12981;DHT22;6555;50.468;8.480;2022-07-29T19:50:34;26.90;39.20
12981;DHT22;6555;50.468;8.480;2022-07-29T19:55:38;26.70;39.40
12981;DHT22;6555;50.468;8.480;2022-07-29T20:00:43;26.60;39.60
12981;DHT22;6555;50.468;8.480;2022-07-29T20:05:46;26.50;39.60
12981;DHT22;6555;50.468;8.480;2022-07-29T20:10:53;26.40;39.80
12981;DHT22;6555;50.468;8.480;2022-07-29T20:15:56;26.30;40.10
12981;DHT22;6555;50.468;8.480;2022-07-29T20:20:59;26.20;40.10
12981;DHT22;6555;50.468;8.480;2022-07-29T20:26:06;26.10;40.20
12981;DHT22;6555;50.468;8.480;2022-07-29T20:31:10;26.00;40.40
12981;DHT22;6555;50.468;8.480;2022-07-29T20:36:16;25.90;39.90
12981;DHT22;6555;50.468;8.480;2022-07-29T20:41:20;25.80;40.10
12981;DHT22;6555;50.468;8.480;2022-07-29T20:46:23;25.70;40.40
12981;DHT22;6555;50.468;8.480;2022-07-29T20:51:26;25.60;40.40
12981;DHT22;6555;50.468;8.480;2022-07-29T20:56:30;25.50;40.40
12981;DHT22;6555;50.468;8.480;2022-07-29T21:01:33;25.40;40.80
12981;DHT22;6555;50.468;8.480;2022-07-29T21:06:37;25.30;40.60
12981;DHT22;6555;50.468;8.480;2022-07-29T21:11:41;25.20;40.90
12981;DHT22;6555;50.468;8.480;2022-07-29T21:16:45;25.10;41.00
12981;DHT22;6555;50.468;8.480;2022-07-29T21:21:48;25.10;41.00
12981;DHT22;6555;50.468;8.480;2022-07-29T21:26:54;25.00;41.20
12981;DHT22;6555;50.468;8.480;2022-07-29T21:32:22;25.00;41.40
12981;DHT22;6555;50.468;8.480;2022-07-29T21:37:30;24.90;41.20
12981;DHT22;6555;50.468;8.480;2022-07-29T21:42:35;24.80;41.30
12981;DHT22;6555;50.468;8.480;2022-07-29T21:47:38;24.80;41.50
12981;DHT22;6555;50.468;8.480;2022-07-29T21:52:41;24.60;41.20
12981;DHT22;6555;50.468;8.480;2022-07-29T21:57:45;24.50;41.30
12981;DHT22;6555;50.468;8.480;2022-07-29T22:02:48;24.40;41.60
12981;DHT22;6555;50.468;8.480;2022-07-29T22:07:51;24.20;41.50
12981;DHT22;6555;50.468;8.480;2022-07-29T22:12:59;24.20;41.60
12981;DHT22;6555;50.468;8.480;2022-07-29T22:18:03;24.10;41.80
12981;DHT22;6555;50.468;8.480;2022-07-29T22:23:06;23.90;41.50
12981;DHT22;6555;50.468;8.480;2022-07-29T22:28:10;23.60;41.30
12981;DHT22;6555;50.468;8.480;2022-07-29T22:33:14;23.40;41.70
12981;DHT22;6555;50.468;8.480;2022-07-29T22:38:19;23.20;42.00
12981;DHT22;6555;50.468;8.480;2022-07-29T22:43:23;23.10;42.30
12981;DHT22;6555;50.468;8.480;2022-07-29T22:48:26;23.00;42.30
12981;DHT22;6555;50.468;8.480;2022-07-29T22:53:29;23.00;42.50
12981;DHT22;6555;50.468;8.480;2022-07-29T22:58:33;22.90;42.60
12981;DHT22;6555;50.468;8.480;2022-07-29T23:03:37;22.80;42.80
12981;DHT22;6555;50.468;8.480;2022-07-29T23:08:40;22.80;42.70
12981;DHT22;6555;50.468;8.480;2022-07-29T23:13:44;22.80;42.90
12981;DHT22;6555;50.468;8.480;2022-07-29T23:18:48;22.80;43.20
12981;DHT22;6555;50.468;8.480;2022-07-29T23:23:53;22.80;43.10
12981;DHT22;6555;50.468;8.480;2022-07-29T23:28:57;22.70;43.20
12981;DHT22;6555;50.468;8.480;2022-07-29T23:34:00;22.70;43.60
12981;DHT22;6555;50.468;8.480;2022-07-29T23:39:04;22.70;43.50
12981;DHT22;6555;50.468;8.480;2022-07-29T23:44:13;22.70;43.70
12981;DHT22;6555;50.468;8.480;2022-07-29T23:49:17;22.70;43.60
12981;DHT22;6555;50.468;8.480;2022-07-29T23:54:20;22.60;43.40
12981;DHT22;6555;50.468;8.480;2022-07-29T23:59:24;22.50;43.60
